createdAt,value
2022-10-01T00:02:11.632Z,5.53
2022-10-01T00:04:40.629Z,9.48
2022-10-01T00:07:10.874Z,5.30
2022-10-01T00:09:39.811Z,7.85
2022-10-01T00:12:08.728Z,6.18
2022-10-01T00:14:38.452Z,6.95
2022-10-01T00:17:07.624Z,7.43
2022-10-01T00:19:34.253Z,7.03
2022-10-01T00:22:00.762Z,6.85
2022-10-01T00:24:27.886Z,5.15
2022-10-01T00:26:54.399Z,7.22
2022-10-01T00:29:20.906Z,4.72
2022-10-01T00:31:47.748Z,6.93
2022-10-01T00:34:15.475Z,5.07
2022-10-01T00:36:42.301Z,6.25
2022-10-01T00:39:10.880Z,5.38
2022-10-01T00:41:39.563Z,6.55
2022-10-01T00:44:28.051Z,6.63
2022-10-01T00:46:57.566Z,5.35
2022-10-01T00:49:29.190Z,6.40
2022-10-01T00:51:59.313Z,8.32
2022-10-01T00:54:33.975Z,6.10
2022-10-01T00:57:05.358Z,4.20
2022-10-01T00:59:34.711Z,6.25
2022-10-01T01:02:01.284Z,6.57
2022-10-01T01:04:27.997Z,5.35
2022-10-01T01:07:01.323Z,5.97
2022-10-01T01:09:37.030Z,5.60
2022-10-01T01:12:06.277Z,6.95
2022-10-01T01:15:11.594Z,7.05
2022-10-01T01:17:52.489Z,15.13
2022-10-01T01:20:18.920Z,6.03
2022-10-01T01:22:55.904Z,4.90
2022-10-01T01:25:34.155Z,7.05
2022-10-01T01:28:24.333Z,4.47
2022-10-01T01:31:00.548Z,4.18
2022-10-01T01:33:31.038Z,5.20
2022-10-01T01:36:06.196Z,4.72
2022-10-01T01:38:54.922Z,4.88
2022-10-01T01:41:25.600Z,4.72
2022-10-01T01:43:59.809Z,5.30
2022-10-01T01:46:32.048Z,3.55
2022-10-01T01:49:01.031Z,3.80
2022-10-01T01:51:51.128Z,3.83
2022-10-01T01:54:19.672Z,3.78
2022-10-01T01:56:46.593Z,5.55
2022-10-01T01:59:16.391Z,3.08
2022-10-01T02:01:46.602Z,2.72
2022-10-01T02:04:21.482Z,2.65
2022-10-01T02:06:54.190Z,3.80
2022-10-01T02:09:31.100Z,2.85
2022-10-01T02:12:16.008Z,3.10
2022-10-01T02:14:59.336Z,2.40
2022-10-01T02:17:35.282Z,2.90
2022-10-01T02:20:08.619Z,2.45
2022-10-01T02:22:47.174Z,4.68
2022-10-01T02:25:17.464Z,2.08
2022-10-01T02:27:51.527Z,1.55
2022-10-01T02:30:18.681Z,3.10
2022-10-01T02:32:49.892Z,2.47
2022-10-01T02:35:19.691Z,1.77
2022-10-01T02:37:51.851Z,2.97
2022-10-01T02:40:26.287Z,2.70
2022-10-01T02:43:02.687Z,2.45
2022-10-01T02:45:35.575Z,1.60
2022-10-01T02:48:08.841Z,2.17
2022-10-01T02:50:44.212Z,1.30
2022-10-01T02:53:17.510Z,1.88
2022-10-01T02:55:46.534Z,2.90
2022-10-01T02:58:13.116Z,1.90
2022-10-01T03:00:39.656Z,1.65
2022-10-01T03:03:06.212Z,3.17
2022-10-01T03:05:32.817Z,2.10
2022-10-01T03:07:59.290Z,1.25
2022-10-01T03:10:25.850Z,1.75
2022-10-01T03:12:52.416Z,1.60
2022-10-01T03:15:20.052Z,1.92
2022-10-01T03:17:50.914Z,2.38
2022-10-01T03:20:17.596Z,1.63
2022-10-01T03:22:50.079Z,4.90
2022-10-01T03:25:17.256Z,1.70
2022-10-01T03:27:43.987Z,1.25
2022-10-01T03:30:14.896Z,3.67
2022-10-01T03:32:41.463Z,1.20
2022-10-01T03:35:13.768Z,1.75
2022-10-01T03:37:40.255Z,2.15
2022-10-01T03:40:09.308Z,2.30
2022-10-01T03:42:35.802Z,1.33
2022-10-01T03:45:02.314Z,1.65
2022-10-01T03:47:28.786Z,1.33
2022-10-01T03:49:55.311Z,2.25
2022-10-01T03:52:21.851Z,3.83
2022-10-01T03:54:48.343Z,3.58
2022-10-01T03:57:14.913Z,0.85
2022-10-01T03:59:42.561Z,1.30
2022-10-01T04:02:09.159Z,1.50
2022-10-01T04:04:37.716Z,1.25
2022-10-01T04:07:04.270Z,3.50
2022-10-01T04:09:30.775Z,2.92
2022-10-01T04:11:57.381Z,0.80
2022-10-01T04:14:23.935Z,1.20
2022-10-01T04:16:52.502Z,2.50
2022-10-01T04:19:21.713Z,0.68
2022-10-01T04:21:53.099Z,1.30
2022-10-01T04:24:19.574Z,1.70
2022-10-01T04:26:46.075Z,3.45
2022-10-01T04:29:14.903Z,2.22
2022-10-01T04:31:41.474Z,1.05
2022-10-01T04:34:08.199Z,0.70
2022-10-01T04:36:34.698Z,0.88
2022-10-01T04:39:03.794Z,2.28
2022-10-01T04:41:31.990Z,0.55
2022-10-01T04:44:00.245Z,1.30
2022-10-01T04:46:30.203Z,1.02
2022-10-01T04:48:57.037Z,1.08
2022-10-01T04:51:25.839Z,1.63
2022-10-01T04:53:55.567Z,1.83
2022-10-01T04:56:22.291Z,1.10
2022-10-01T04:58:49.193Z,0.88
2022-10-01T05:01:15.779Z,1.00
2022-10-01T05:03:42.365Z,1.40
2022-10-01T05:06:11.246Z,0.95
2022-10-01T05:08:38.294Z,3.20
2022-10-01T05:11:05.088Z,2.00
2022-10-01T05:13:32.063Z,2.60
2022-10-01T05:15:58.931Z,2.28
2022-10-01T05:18:25.465Z,2.75
2022-10-01T05:20:51.983Z,2.13
2022-10-01T05:23:21.172Z,1.88
2022-10-01T05:25:47.672Z,6.28
2022-10-01T05:28:22.154Z,2.50
2022-10-01T05:30:51.739Z,2.55
2022-10-01T05:33:18.277Z,4.50
2022-10-01T05:35:45.014Z,4.40
2022-10-01T05:38:11.549Z,2.97
2022-10-01T05:40:38.026Z,5.53
2022-10-01T05:43:04.559Z,4.38
2022-10-01T05:45:32.466Z,6.05
2022-10-01T05:48:00.713Z,4.85
2022-10-01T05:50:31.357Z,4.30
2022-10-01T05:53:00.403Z,5.88
2022-10-01T05:55:34.500Z,6.22
2022-10-01T05:58:05.801Z,5.70
2022-10-01T06:00:33.707Z,5.85
2022-10-01T06:03:02.312Z,6.43
2022-10-01T06:05:30.656Z,7.57
2022-10-01T06:08:00.767Z,5.68
2022-10-01T06:10:30.643Z,6.32
2022-10-01T06:13:05.380Z,6.28
2022-10-01T06:15:37.966Z,6.20
2022-10-01T06:18:06.206Z,6.20
2022-10-01T06:20:32.906Z,8.55
2022-10-01T06:23:02.077Z,9.40
2022-10-01T06:25:31.240Z,8.02
2022-10-01T06:27:59.624Z,10.40
2022-10-01T06:30:28.941Z,12.32
2022-10-01T06:33:06.753Z,13.70
2022-10-01T06:35:37.034Z,8.77
2022-10-01T06:38:06.934Z,8.98
2022-10-01T06:40:33.454Z,12.52
2022-10-01T06:42:59.994Z,10.00
2022-10-01T06:45:27.637Z,9.00
2022-10-01T06:47:59.662Z,10.98
2022-10-01T06:50:26.370Z,12.43
2022-10-01T06:52:55.910Z,9.75
2022-10-01T06:55:29.074Z,7.13
2022-10-01T06:57:58.467Z,7.95
2022-10-01T07:00:26.374Z,8.77
2022-10-01T07:02:55.811Z,11.90
2022-10-01T07:05:24.444Z,9.48
2022-10-01T07:07:54.017Z,13.63
2022-10-01T07:10:24.553Z,7.75
2022-10-01T07:12:51.468Z,8.48
2022-10-01T07:15:22.675Z,10.00
2022-10-01T07:17:50.615Z,12.02
2022-10-01T07:20:22.208Z,10.90
2022-10-01T07:22:58.090Z,12.80
2022-10-01T07:25:25.597Z,8.43
2022-10-01T07:28:04.359Z,10.65
2022-10-01T07:30:34.461Z,10.77
2022-10-01T07:33:02.183Z,12.98
2022-10-01T07:35:29.697Z,12.65
2022-10-01T07:37:56.247Z,11.73
2022-10-01T07:40:22.849Z,10.98
2022-10-01T07:42:54.656Z,14.85
2022-10-01T07:45:22.800Z,15.85
2022-10-01T07:47:57.259Z,13.48
2022-10-01T07:50:25.377Z,11.05
2022-10-01T07:52:56.282Z,8.73
2022-10-01T07:55:26.541Z,8.35
2022-10-01T07:57:58.205Z,11.95
2022-10-01T08:00:26.668Z,10.80
2022-10-01T08:02:56.015Z,10.45
2022-10-01T08:05:25.514Z,9.45
2022-10-01T08:07:52.390Z,10.48
2022-10-01T08:10:20.334Z,8.30
2022-10-01T08:12:47.169Z,9.68
2022-10-01T08:15:16.799Z,7.63
2022-10-01T08:17:43.936Z,5.78
2022-10-01T08:20:16.214Z,9.35
2022-10-01T08:22:42.924Z,6.75
2022-10-01T08:25:09.975Z,5.80
2022-10-01T08:27:37.073Z,5.55
2022-10-01T08:30:04.650Z,5.00
2022-10-01T08:32:33.431Z,5.13
2022-10-01T08:35:01.345Z,5.75
2022-10-01T08:37:29.219Z,5.80
2022-10-01T08:39:56.568Z,5.13
2022-10-01T08:42:28.450Z,7.20
2022-10-01T08:44:55.234Z,10.52
2022-10-01T08:47:31.031Z,8.50
2022-10-01T08:50:14.462Z,7.15
2022-10-01T08:52:52.217Z,8.50
2022-10-01T08:55:24.519Z,10.43
2022-10-01T08:58:00.438Z,8.93
2022-10-01T09:00:29.341Z,8.98
2022-10-01T09:03:00.460Z,10.30
2022-10-01T09:05:35.226Z,12.32
2022-10-01T09:08:15.403Z,11.23
2022-10-01T09:10:47.566Z,13.32
2022-10-01T09:13:33.357Z,12.65
2022-10-01T09:16:38.738Z,9.95
2022-10-01T09:19:31.840Z,11.60
2022-10-01T09:22:36.032Z,9.15
2022-10-01T09:25:21.313Z,8.00
2022-10-01T09:27:48.520Z,9.55
2022-10-01T09:30:24.839Z,9.35
2022-10-01T09:33:16.139Z,7.45
2022-10-01T09:35:54.768Z,9.18
2022-10-01T09:38:25.587Z,12.18
2022-10-01T09:40:56.779Z,9.40
2022-10-01T09:43:34.644Z,8.60
2022-10-01T09:46:15.388Z,7.57
2022-10-01T09:49:05.013Z,9.38
2022-10-01T09:51:45.000Z,15.15
2022-10-01T09:54:39.034Z,7.20
2022-10-01T09:57:24.234Z,12.77
2022-10-01T10:00:01.649Z,13.43
2022-10-01T10:02:35.312Z,8.82
2022-10-01T10:05:06.455Z,9.70
2022-10-01T10:07:35.042Z,11.48
2022-10-01T10:10:35.655Z,9.82
2022-10-01T10:13:35.171Z,11.13
2022-10-01T10:16:26.918Z,10.38
2022-10-01T10:19:02.240Z,7.40
2022-10-01T10:21:31.897Z,9.23
2022-10-01T10:24:00.898Z,9.82
2022-10-01T10:26:34.001Z,9.80
2022-10-01T10:29:02.976Z,8.63
2022-10-01T10:31:39.775Z,11.82
2022-10-01T10:34:17.735Z,12.35
2022-10-01T10:36:45.971Z,22.15
2022-10-01T10:39:34.856Z,11.32
2022-10-01T10:42:04.091Z,13.95
2022-10-01T10:44:36.283Z,12.25
2022-10-01T10:47:11.711Z,15.65
2022-10-01T10:49:47.259Z,10.25
2022-10-01T10:52:33.434Z,13.40
2022-10-01T10:55:02.461Z,10.48
2022-10-01T10:57:34.025Z,11.98
2022-10-01T11:00:06.841Z,13.52
2022-10-01T11:02:33.851Z,8.23
2022-10-01T11:05:12.047Z,9.10
2022-10-01T11:07:43.244Z,13.25
2022-10-01T11:10:46.199Z,8.52
2022-10-01T11:13:49.634Z,7.60
2022-10-01T11:16:29.580Z,10.05
2022-10-01T11:19:11.362Z,10.18
2022-10-01T11:22:04.164Z,11.90
2022-10-01T11:24:57.120Z,13.88
2022-10-01T11:27:38.898Z,8.80
2022-10-01T11:30:35.536Z,8.18
2022-10-01T11:33:19.564Z,6.60
2022-10-01T11:36:22.265Z,12.75
2022-10-01T11:39:13.551Z,10.75
2022-10-01T11:41:45.329Z,8.50
2022-10-01T11:44:30.809Z,6.57
2022-10-01T11:47:10.232Z,15.30
2022-10-01T11:49:52.060Z,8.10
2022-10-01T11:52:37.637Z,12.73
2022-10-01T11:55:34.684Z,11.07
2022-10-01T11:58:54.928Z,8.88
2022-10-01T12:01:24.991Z,11.60
2022-10-01T12:03:54.390Z,8.10
2022-10-01T12:06:28.418Z,10.82
2022-10-01T12:09:07.890Z,11.88
2022-10-01T12:11:52.836Z,12.90
2022-10-01T12:15:06.934Z,7.40
2022-10-01T12:17:46.680Z,8.13
2022-10-01T12:20:25.564Z,10.27
2022-10-01T12:22:56.335Z,9.68
2022-10-01T12:25:31.212Z,10.70
2022-10-01T12:28:01.790Z,8.02
2022-10-01T12:30:38.666Z,8.82
2022-10-01T12:33:34.130Z,15.45
2022-10-01T12:36:32.567Z,8.02
2022-10-01T12:39:34.281Z,6.55
2022-10-01T12:42:04.164Z,8.20
2022-10-01T12:45:20.398Z,10.57
2022-10-01T12:48:07.773Z,9.18
2022-10-01T12:51:02.885Z,10.77
2022-10-01T12:53:38.768Z,7.75
2022-10-01T12:56:21.666Z,10.15
2022-10-01T12:59:11.965Z,14.85
2022-10-01T13:01:57.509Z,8.55
2022-10-01T13:04:40.439Z,9.48
2022-10-01T13:07:29.375Z,9.35
2022-10-01T13:10:05.061Z,4.95
2022-10-01T13:12:43.709Z,11.57
2022-10-01T13:15:40.879Z,6.75
2022-10-01T13:18:52.185Z,9.43
2022-10-01T13:21:37.136Z,8.52
2022-10-01T13:24:19.941Z,9.32
2022-10-01T13:27:05.693Z,14.13
2022-10-01T13:30:12.218Z,8.88
2022-10-01T13:32:55.594Z,6.93
2022-10-01T13:35:34.474Z,9.18
2022-10-01T13:38:14.549Z,5.45
2022-10-01T13:40:44.240Z,11.70
2022-10-01T13:43:23.386Z,12.70
2022-10-01T13:45:52.335Z,7.25
2022-10-01T13:48:35.282Z,6.65
2022-10-01T13:51:13.341Z,12.73
2022-10-01T13:53:42.839Z,15.70
2022-10-01T13:56:13.126Z,8.32
2022-10-01T13:58:50.280Z,13.48
2022-10-01T14:01:21.355Z,12.50
2022-10-01T14:04:17.518Z,10.30
2022-10-01T14:06:51.310Z,15.43
2022-10-01T14:09:36.550Z,7.90
2022-10-01T14:12:30.793Z,12.60
2022-10-01T14:15:18.653Z,7.22
2022-10-01T14:17:55.752Z,6.47
2022-10-01T14:20:28.975Z,8.57
2022-10-01T14:23:21.595Z,5.53
2022-10-01T14:25:59.315Z,9.35
2022-10-01T14:28:39.549Z,6.38
2022-10-01T14:31:17.453Z,9.80
2022-10-01T14:34:06.741Z,10.15
2022-10-01T14:36:41.995Z,6.28
2022-10-01T14:39:30.241Z,7.45
2022-10-01T14:41:57.992Z,10.65
2022-10-01T14:44:30.331Z,11.52
2022-10-01T14:47:01.146Z,15.52
2022-10-01T14:49:32.587Z,8.13
2022-10-01T14:52:28.599Z,11.73
2022-10-01T14:55:09.232Z,11.23
2022-10-01T14:57:41.927Z,5.78
2022-10-01T15:00:26.821Z,6.28
2022-10-01T15:03:15.151Z,9.32
2022-10-01T15:05:43.170Z,11.02
2022-10-01T15:08:21.186Z,10.07
2022-10-01T15:11:00.725Z,11.85
2022-10-01T15:13:29.796Z,11.85
2022-10-01T15:15:59.122Z,11.82
2022-10-01T15:18:26.619Z,10.23
2022-10-01T15:20:59.703Z,12.93
2022-10-01T15:23:28.873Z,9.70
2022-10-01T15:25:58.644Z,8.93
2022-10-01T15:28:36.877Z,11.60
2022-10-01T15:31:06.434Z,9.18
2022-10-01T15:33:36.185Z,13.07
2022-10-01T15:36:05.897Z,11.55
2022-10-01T15:38:33.644Z,9.57
2022-10-01T15:41:26.661Z,12.13
2022-10-01T15:43:52.320Z,8.88
2022-10-01T15:46:31.321Z,11.75
2022-10-01T15:49:14.773Z,14.82
2022-10-01T15:52:14.172Z,9.48
2022-10-01T15:54:44.772Z,10.85
2022-10-01T15:57:23.831Z,12.15
2022-10-01T15:59:53.439Z,12.32
2022-10-01T16:02:25.202Z,13.55
2022-10-01T16:04:56.687Z,13.02
2022-10-01T16:07:29.716Z,9.77
2022-10-01T16:09:58.366Z,8.77
2022-10-01T16:12:27.539Z,8.98
2022-10-01T16:14:56.831Z,14.48
2022-10-01T16:17:30.255Z,8.60
2022-10-01T16:20:02.788Z,8.73
2022-10-01T16:22:33.797Z,13.30
2022-10-01T16:25:24.986Z,13.20
2022-10-01T16:27:58.386Z,10.65
2022-10-01T16:30:27.024Z,11.35
2022-10-01T16:32:54.329Z,10.68
2022-10-01T16:35:22.126Z,11.05
2022-10-01T16:37:53.270Z,5.72
2022-10-01T16:40:22.160Z,8.40
2022-10-01T16:42:52.294Z,8.73
2022-10-01T16:45:22.702Z,14.57
2022-10-01T16:47:49.243Z,9.13
2022-10-01T16:50:18.643Z,16.35
2022-10-01T16:52:48.578Z,10.18
2022-10-01T16:55:23.040Z,10.65
2022-10-01T16:57:50.946Z,9.75
2022-10-01T17:00:20.192Z,15.43
2022-10-01T17:02:46.977Z,17.38
2022-10-01T17:05:22.697Z,13.88
2022-10-01T17:07:49.667Z,14.77
2022-10-01T17:10:17.971Z,8.85
2022-10-01T17:12:52.522Z,15.48
2022-10-01T17:15:23.261Z,8.18
2022-10-01T17:17:53.898Z,15.38
2022-10-01T17:20:22.108Z,18.30
2022-10-01T17:22:51.770Z,6.75
2022-10-01T17:25:23.794Z,8.35
2022-10-01T17:27:50.506Z,14.55
2022-10-01T17:30:19.527Z,13.55
2022-10-01T17:32:46.752Z,8.25
2022-10-01T17:35:15.061Z,12.63
2022-10-01T17:37:42.533Z,8.65
2022-10-01T17:40:13.666Z,6.78
2022-10-01T17:42:44.938Z,13.07
2022-10-01T17:45:13.817Z,9.32
2022-10-01T17:47:45.230Z,14.00
2022-10-01T17:50:12.602Z,13.23
2022-10-01T17:52:39.236Z,10.65
2022-10-01T17:55:06.568Z,8.93
2022-10-01T17:57:33.770Z,10.75
2022-10-01T18:00:00.511Z,13.05
2022-10-01T18:02:41.569Z,10.30
2022-10-01T18:05:12.183Z,11.90
2022-10-01T18:07:39.120Z,10.43
2022-10-01T18:10:12.550Z,12.27
2022-10-01T18:12:39.442Z,13.80
2022-10-01T18:15:06.478Z,9.73
2022-10-01T18:17:33.482Z,10.52
2022-10-01T18:20:00.362Z,11.45
2022-10-01T18:22:28.261Z,14.98
2022-10-01T18:24:55.115Z,7.93
2022-10-01T18:27:21.749Z,14.27
2022-10-01T18:29:48.253Z,8.95
2022-10-01T18:32:24.109Z,10.75
2022-10-01T18:35:06.302Z,12.85
2022-10-01T18:37:46.631Z,10.77
2022-10-01T18:40:13.028Z,10.40
2022-10-01T18:42:45.549Z,11.98
2022-10-01T18:45:40.628Z,16.25
2022-10-01T18:48:25.587Z,12.68
2022-10-01T18:51:10.273Z,9.77
2022-10-01T18:54:24.836Z,12.70
2022-10-01T18:57:13.164Z,14.20
2022-10-01T18:59:57.283Z,10.07
2022-10-01T19:02:45.836Z,13.75
2022-10-01T19:05:38.253Z,11.68
2022-10-01T19:08:24.601Z,8.45
2022-10-01T19:11:18.009Z,11.68
2022-10-01T19:14:18.714Z,10.32
2022-10-01T19:16:59.252Z,17.65
2022-10-01T19:19:52.310Z,12.27
2022-10-01T19:22:24.707Z,14.35
2022-10-01T19:24:57.936Z,15.63
2022-10-01T19:27:54.138Z,11.43
2022-10-01T19:30:20.811Z,14.32
2022-10-01T19:32:59.977Z,15.23
2022-10-01T19:35:31.892Z,12.23
2022-10-01T19:38:06.096Z,14.55
2022-10-01T19:40:51.391Z,14.30
2022-10-01T19:43:26.846Z,9.15
2022-10-01T19:46:17.454Z,13.80
2022-10-01T19:48:49.221Z,9.90
2022-10-01T19:51:24.146Z,12.95
2022-10-01T19:54:00.040Z,13.88
2022-10-01T19:56:35.030Z,15.88
2022-10-01T19:59:10.792Z,15.73
2022-10-01T20:01:53.094Z,13.93
2022-10-01T20:04:44.440Z,17.63
2022-10-01T20:07:17.029Z,15.98
2022-10-01T20:09:56.301Z,13.40
2022-10-01T20:12:36.139Z,11.85
2022-10-01T20:15:30.806Z,14.85
2022-10-01T20:18:28.606Z,10.13
2022-10-01T20:20:58.246Z,16.58
2022-10-01T20:23:55.882Z,13.40
2022-10-01T20:26:57.565Z,13.32
2022-10-01T20:30:14.071Z,11.40
2022-10-01T20:33:00.954Z,19.10
2022-10-01T20:35:34.101Z,14.75
2022-10-01T20:38:22.778Z,17.48
2022-10-01T20:41:00.114Z,12.43
2022-10-01T20:43:33.647Z,16.83
2022-10-01T20:46:09.137Z,13.40
2022-10-01T20:48:39.161Z,12.90
2022-10-01T20:51:14.637Z,18.25
2022-10-01T20:53:53.020Z,15.18
2022-10-01T20:56:42.864Z,14.95
2022-10-01T20:59:40.477Z,14.88
2022-10-01T21:02:32.865Z,13.00
2022-10-01T21:05:09.293Z,14.30
2022-10-01T21:07:51.293Z,9.90
2022-10-01T21:10:33.409Z,12.93
2022-10-01T21:13:11.759Z,18.27
2022-10-01T21:15:49.587Z,14.80
2022-10-01T21:18:22.416Z,19.60
2022-10-01T21:21:19.980Z,15.05
2022-10-01T21:24:01.287Z,22.38
2022-10-01T21:26:58.430Z,14.90
2022-10-01T21:29:54.989Z,19.92
2022-10-01T21:32:30.227Z,16.55
2022-10-01T21:35:15.470Z,9.05
2022-10-01T21:37:55.556Z,14.23
2022-10-01T21:40:47.554Z,13.57
2022-10-01T21:43:44.601Z,20.63
2022-10-01T21:46:37.656Z,17.48
2022-10-01T21:49:50.241Z,14.65
2022-10-01T21:52:47.700Z,16.52
2022-10-01T21:55:14.132Z,15.65
2022-10-01T21:57:48.321Z,16.90
2022-10-01T22:00:23.171Z,20.15
2022-10-01T22:02:52.411Z,20.77
2022-10-01T22:05:37.964Z,18.05
2022-10-01T22:08:40.475Z,15.75
2022-10-01T22:11:17.175Z,13.70
2022-10-01T22:13:54.908Z,20.90
2022-10-01T22:16:26.242Z,21.30
2022-10-01T22:18:57.164Z,21.25
2022-10-01T22:21:44.584Z,20.05
2022-10-01T22:24:16.159Z,21.85
2022-10-01T22:26:53.770Z,17.70
2022-10-01T22:29:29.355Z,19.73
2022-10-01T22:32:03.122Z,17.73
2022-10-01T22:34:37.634Z,20.90
2022-10-01T22:37:23.220Z,19.20
2022-10-01T22:39:58.321Z,21.75
2022-10-01T22:42:30.378Z,21.08
2022-10-01T22:45:03.933Z,19.63
2022-10-01T22:47:30.362Z,16.58
2022-10-01T22:50:15.735Z,18.40
2022-10-01T22:53:07.230Z,17.83
2022-10-01T22:55:54.693Z,20.95
2022-10-01T22:58:57.582Z,15.02
2022-10-01T23:01:39.742Z,18.55
2022-10-01T23:04:21.339Z,26.50
2022-10-01T23:07:11.227Z,23.45
2022-10-01T23:09:43.768Z,23.58
2022-10-01T23:12:31.669Z,29.45
2022-10-01T23:15:08.024Z,21.52
2022-10-01T23:17:43.790Z,17.95
2022-10-01T23:20:20.595Z,21.48
2022-10-01T23:23:01.215Z,17.58
2022-10-01T23:26:04.637Z,26.20
2022-10-01T23:28:39.188Z,27.85
2022-10-01T23:31:29.134Z,23.48
2022-10-01T23:34:20.228Z,21.08
2022-10-01T23:36:52.834Z,18.85
2022-10-01T23:39:37.550Z,21.48
2022-10-01T23:42:22.828Z,24.25
2022-10-01T23:45:14.273Z,15.43
2022-10-01T23:48:08.486Z,29.38
2022-10-01T23:50:44.254Z,22.20
2022-10-01T23:53:17.671Z,25.10
2022-10-01T23:56:27.894Z,30.05
2022-10-01T23:59:00.882Z,31.35
